Airfield :
LOGIN :

Register | Disclaimer

   EN    FR    IT 

 










Legend :    VFR   Marginal VFR   IFR   Intensive IFR   Very Intensive IFR
Visi :
Ceiling :
>= 8 km
>= 3000ft
5 to 8 km
1000 to 3000 ft
1500m to 5 km
500 to 1000 ft
800 to 1500m
200 to 500 ft
< 800m
< 200 ft
Symbols :   Thunderstorms  Fog  Heavy snow  Heavy precipitations  Wind > 20 kt
SIGMETs :     Misc.  Thunderstorms  Icing  Turbulence  Mountain Waves  Volcanic Ashes






- Airport Elevation : 479 ft
- IATA code : DOL


LFRG - Deauville

CURRENT METAR :
  • 091730Z AUTO 32010KT 280V360 9999 FEW038 08/01 Q1023 NOSIG

EXPIRED METARs :
  • 091700Z AUTO 32010KT 260V360 9999 FEW040 08/02 Q1022 TEMPO 32015G25KT
  • 091630Z AUTO 33012KT 290V360 9999 FEW039 08/02 Q1021 TEMPO 32015G25KT
  • 091600Z AUTO 32011KT 280V010 9999 BKN042 BKN058 09/02 Q1020 BECMG 32015G25KT
  • 091530Z AUTO 32010KT 270V360 9999 SCT031 BKN039 BKN045 09/03 Q1020 BECMG 32015G25KT
  • 091500Z AUTO 33010KT 290V020 9999 FEW031 BKN038 BKN045 09/03 Q1019 BECMG 32015G25KT
  • 091430Z AUTO 32013KT 290V010 9999 FEW030 BKN038 BKN046 09/03 Q1018 BECMG 32015G25KT

TAF TAF LFRG
Valid from the 09 at 15:00 until the 10 at 00:00 UTC


091400Z 0915/0924 32020G35KT 9999 SCT030
BECMG 0916/0918 32015G25KT
BECMG 0918/0920 34010KT
BECMG 0920/0922 VRB05KT
ATIS : +33 2 31 65 65 36



MET'MAP, your aeronautical weather chart ! - Copyright ORBIFLY December 2007 - Disclaimer

ORBIFLY MET'MAP TEAM :

Programming & Development : Alexandra Zaïnal
Concept & original design : Baudouin d'Aumeries
Assistance for programming : Marc-Olivier Méhu
Technical & hardware support : Manuel Goepfert

Contact : metmap@orbifly.com




SOURCES & CREDITS :

   NOAA